sensor_id;sensor_type;location;lat;lon;timestamp;temperature;humidity
24162;DHT22;12318;51.262;7.066;2022-11-11T00:00:37;8.90;99.90
24162;DHT22;12318;51.262;7.066;2022-11-11T00:03:03;8.80;99.90
24162;DHT22;12318;51.262;7.066;2022-11-11T00:05:31;8.80;99.90
24162;DHT22;12318;51.262;7.066;2022-11-11T00:07:57;8.80;99.90
24162;DHT22;12318;51.262;7.066;2022-11-11T00:10:29;8.80;99.90
24162;DHT22;12318;51.262;7.066;2022-11-11T00:13:02;8.80;99.90
24162;DHT22;12318;51.262;7.066;2022-11-11T00:15:29;8.90;99.90
24162;DHT22;12318;51.262;7.066;2022-11-11T00:17:55;8.80;99.90
24162;DHT22;12318;51.262;7.066;2022-11-11T00:20:39;8.90;99.90
24162;DHT22;12318;51.262;7.066;2022-11-11T00:23:25;8.90;99.90
24162;DHT22;12318;51.262;7.066;2022-11-11T00:26:12;8.80;99.90
24162;DHT22;12318;51.262;7.066;2022-11-11T00:28:39;8.80;99.90
24162;DHT22;12318;51.262;7.066;2022-11-11T00:31:09;8.80;99.90
24162;DHT22;12318;51.262;7.066;2022-11-11T00:33:35;8.80;99.90
24162;DHT22;12318;51.262;7.066;2022-11-11T00:36:01;8.80;99.90
24162;DHT22;12318;51.262;7.066;2022-11-11T00:38:27;8.70;99.90
24162;DHT22;12318;51.262;7.066;2022-11-11T00:41:17;8.70;99.90
24162;DHT22;12318;51.262;7.066;2022-11-11T00:43:43;8.70;99.90
24162;DHT22;12318;51.262;7.066;2022-11-11T00:46:10;8.70;99.90
24162;DHT22;12318;51.262;7.066;2022-11-11T00:48:55;8.70;99.90
24162;DHT22;12318;51.262;7.066;2022-11-11T00:51:39;8.60;99.90
24162;DHT22;12318;51.262;7.066;2022-11-11T00:54:06;8.70;99.90
24162;DHT22;12318;51.262;7.066;2022-11-11T00:56:32;8.70;99.90
24162;DHT22;12318;51.262;7.066;2022-11-11T00:59:02;8.70;99.90
24162;DHT22;12318;51.262;7.066;2022-11-11T01:01:28;8.70;99.90
24162;DHT22;12318;51.262;7.066;2022-11-11T01:03:54;8.70;99.90
24162;DHT22;12318;51.262;7.066;2022-11-11T01:06:19;8.70;99.90
24162;DHT22;12318;51.262;7.066;2022-11-11T01:08:45;8.70;99.90
24162;DHT22;12318;51.262;7.066;2022-11-11T01:11:14;8.60;99.90
24162;DHT22;12318;51.262;7.066;2022-11-11T01:13:40;8.60;99.90
24162;DHT22;12318;51.262;7.066;2022-11-11T01:16:07;8.70;99.90
24162;DHT22;12318;51.262;7.066;2022-11-11T01:18:33;8.70;99.90
24162;DHT22;12318;51.262;7.066;2022-11-11T01:21:04;8.70;99.90
24162;DHT22;12318;51.262;7.066;2022-11-11T01:23:31;8.70;99.90
24162;DHT22;12318;51.262;7.066;2022-11-11T01:26:02;8.80;99.90
24162;DHT22;12318;51.262;7.066;2022-11-11T01:28:28;8.70;99.90
24162;DHT22;12318;51.262;7.066;2022-11-11T01:31:03;8.70;99.90
24162;DHT22;12318;51.262;7.066;2022-11-11T01:33:29;8.80;99.90
24162;DHT22;12318;51.262;7.066;2022-11-11T01:35:55;8.80;99.90
24162;DHT22;12318;51.262;7.066;2022-11-11T01:38:21;8.70;99.90
24162;DHT22;12318;51.262;7.066;2022-11-11T01:40:48;8.70;99.90
24162;DHT22;12318;51.262;7.066;2022-11-11T01:43:17;8.80;99.90
24162;DHT22;12318;51.262;7.066;2022-11-11T01:45:50;8.80;99.90
24162;DHT22;12318;51.262;7.066;2022-11-11T01:48:40;8.80;99.90
24162;DHT22;12318;51.262;7.066;2022-11-11T01:54:51;8.70;99.90
24162;DHT22;12318;51.262;7.066;2022-11-11T01:59:56;8.70;99.90
24162;DHT22;12318;51.262;7.066;2022-11-11T02:03:03;8.70;99.90
24162;DHT22;12318;51.262;7.066;2022-11-11T02:05:29;8.70;99.90
24162;DHT22;12318;51.262;7.066;2022-11-11T02:08:17;8.60;99.90
24162;DHT22;12318;51.262;7.066;2022-11-11T02:11:08;8.60;99.90
24162;DHT22;12318;51.262;7.066;2022-11-11T02:13:41;8.50;99.90
24162;DHT22;12318;51.262;7.066;2022-11-11T02:16:25;8.50;99.90
24162;DHT22;12318;51.262;7.066;2022-11-11T02:18:51;8.50;99.90
24162;DHT22;12318;51.262;7.066;2022-11-11T02:21:34;8.50;99.90
24162;DHT22;12318;51.262;7.066;2022-11-11T02:24:07;8.50;99.90
24162;DHT22;12318;51.262;7.066;2022-11-11T02:26:35;8.40;99.90
24162;DHT22;12318;51.262;7.066;2022-11-11T02:29:03;8.40;99.90
24162;DHT22;12318;51.262;7.066;2022-11-11T02:31:31;8.40;99.90
24162;DHT22;12318;51.262;7.066;2022-11-11T02:33:57;8.40;99.90
24162;DHT22;12318;51.262;7.066;2022-11-11T02:36:23;8.40;99.90
24162;DHT22;12318;51.262;7.066;2022-11-11T02:38:50;8.30;99.90
24162;DHT22;12318;51.262;7.066;2022-11-11T02:41:16;8.30;99.90
24162;DHT22;12318;51.262;7.066;2022-11-11T02:44:00;8.30;99.90
24162;DHT22;12318;51.262;7.066;2022-11-11T02:46:26;8.30;99.90
24162;DHT22;12318;51.262;7.066;2022-11-11T02:48:52;8.30;99.90
24162;DHT22;12318;51.262;7.066;2022-11-11T02:51:17;8.30;99.90
24162;DHT22;12318;51.262;7.066;2022-11-11T02:53:43;8.30;99.90
24162;DHT22;12318;51.262;7.066;2022-11-11T02:56:09;8.30;99.90
24162;DHT22;12318;51.262;7.066;2022-11-11T02:58:35;8.30;99.90
24162;DHT22;12318;51.262;7.066;2022-11-11T03:01:01;8.30;99.90
24162;DHT22;12318;51.262;7.066;2022-11-11T03:03:26;8.40;99.90
24162;DHT22;12318;51.262;7.066;2022-11-11T03:05:52;8.40;99.90
24162;DHT22;12318;51.262;7.066;2022-11-11T03:08:18;8.40;99.90
24162;DHT22;12318;51.262;7.066;2022-11-11T03:10:44;8.30;99.90
24162;DHT22;12318;51.262;7.066;2022-11-11T03:13:09;8.30;99.90
24162;DHT22;12318;51.262;7.066;2022-11-11T03:15:35;8.30;99.90
24162;DHT22;12318;51.262;7.066;2022-11-11T03:18:01;8.20;99.90
24162;DHT22;12318;51.262;7.066;2022-11-11T03:20:26;8.20;99.90
24162;DHT22;12318;51.262;7.066;2022-11-11T03:23:13;8.10;99.90
24162;DHT22;12318;51.262;7.066;2022-11-11T03:25:44;8.20;99.90
24162;DHT22;12318;51.262;7.066;2022-11-11T03:28:12;8.10;99.90
24162;DHT22;12318;51.262;7.066;2022-11-11T03:30:40;8.10;99.90
24162;DHT22;12318;51.262;7.066;2022-11-11T03:33:06;8.00;99.90
24162;DHT22;12318;51.262;7.066;2022-11-11T03:35:32;8.10;99.90
24162;DHT22;12318;51.262;7.066;2022-11-11T03:37:58;8.00;99.90
24162;DHT22;12318;51.262;7.066;2022-11-11T03:40:44;8.00;99.90
24162;DHT22;12318;51.262;7.066;2022-11-11T03:43:12;8.00;99.90
24162;DHT22;12318;51.262;7.066;2022-11-11T03:45:38;8.00;99.90
24162;DHT22;12318;51.262;7.066;2022-11-11T03:48:04;8.00;99.90
24162;DHT22;12318;51.262;7.066;2022-11-11T03:50:31;8.00;99.90
24162;DHT22;12318;51.262;7.066;2022-11-11T03:52:56;7.90;99.90
24162;DHT22;12318;51.262;7.066;2022-11-11T03:55:22;7.90;99.90
24162;DHT22;12318;51.262;7.066;2022-11-11T03:57:48;7.90;99.90
24162;DHT22;12318;51.262;7.066;2022-11-11T04:00:17;7.90;99.90
24162;DHT22;12318;51.262;7.066;2022-11-11T04:02:43;7.90;99.90
24162;DHT22;12318;51.262;7.066;2022-11-11T04:05:27;7.90;99.90
24162;DHT22;12318;51.262;7.066;2022-11-11T04:08:13;7.90;99.90
24162;DHT22;12318;51.262;7.066;2022-11-11T04:11:29;7.90;99.90
24162;DHT22;12318;51.262;7.066;2022-11-11T04:13:59;7.90;99.90
24162;DHT22;12318;51.262;7.066;2022-11-11T04:16:44;7.90;99.90
24162;DHT22;12318;51.262;7.066;2022-11-11T04:19:10;7.80;99.90
24162;DHT22;12318;51.262;7.066;2022-11-11T04:21:54;7.80;99.90
24162;DHT22;12318;51.262;7.066;2022-11-11T04:24:20;7.80;99.90
24162;DHT22;12318;51.262;7.066;2022-11-11T04:27:13;7.80;99.90
24162;DHT22;12318;51.262;7.066;2022-11-11T04:29:39;7.80;99.90
24162;DHT22;12318;51.262;7.066;2022-11-11T04:32:10;7.90;99.90
24162;DHT22;12318;51.262;7.066;2022-11-11T04:34:56;7.80;99.90
24162;DHT22;12318;51.262;7.066;2022-11-11T04:37:24;7.80;99.90
24162;DHT22;12318;51.262;7.066;2022-11-11T04:39:51;7.80;99.90
24162;DHT22;12318;51.262;7.066;2022-11-11T04:42:35;7.90;99.90
24162;DHT22;12318;51.262;7.066;2022-11-11T04:45:03;7.80;99.90
24162;DHT22;12318;51.262;7.066;2022-11-11T04:50:23;7.80;99.90
24162;DHT22;12318;51.262;7.066;2022-11-11T04:52:49;7.80;99.90
24162;DHT22;12318;51.262;7.066;2022-11-11T04:55:15;7.80;99.90
24162;DHT22;12318;51.262;7.066;2022-11-11T04:57:59;7.80;99.90
24162;DHT22;12318;51.262;7.066;2022-11-11T05:00:25;7.70;99.90
24162;DHT22;12318;51.262;7.066;2022-11-11T05:02:55;7.80;99.90
24162;DHT22;12318;51.262;7.066;2022-11-11T05:05:40;7.70;99.90
24162;DHT22;12318;51.262;7.066;2022-11-11T05:08:25;7.70;99.90
24162;DHT22;12318;51.262;7.066;2022-11-11T05:11:09;7.80;99.90
24162;DHT22;12318;51.262;7.066;2022-11-11T05:13:35;7.80;99.90
24162;DHT22;12318;51.262;7.066;2022-11-11T05:16:22;7.80;99.90
24162;DHT22;12318;51.262;7.066;2022-11-11T05:19:10;7.70;99.90
24162;DHT22;12318;51.262;7.066;2022-11-11T05:21:56;7.70;99.90
24162;DHT22;12318;51.262;7.066;2022-11-11T05:24:22;7.70;99.90
24162;DHT22;12318;51.262;7.066;2022-11-11T05:27:07;7.80;99.90
24162;DHT22;12318;51.262;7.066;2022-11-11T05:29:32;7.80;99.90
24162;DHT22;12318;51.262;7.066;2022-11-11T05:31:58;7.70;99.90
24162;DHT22;12318;51.262;7.066;2022-11-11T05:34:24;7.70;99.90
24162;DHT22;12318;51.262;7.066;2022-11-11T05:36:49;7.70;99.90
24162;DHT22;12318;51.262;7.066;2022-11-11T05:39:15;7.70;99.90
24162;DHT22;12318;51.262;7.066;2022-11-11T05:41:41;7.70;99.90
24162;DHT22;12318;51.262;7.066;2022-11-11T05:44:06;7.70;99.90
24162;DHT22;12318;51.262;7.066;2022-11-11T05:46:32;7.70;99.90
24162;DHT22;12318;51.262;7.066;2022-11-11T05:48:58;7.70;99.90
24162;DHT22;12318;51.262;7.066;2022-11-11T05:51:43;7.70;99.90
24162;DHT22;12318;51.262;7.066;2022-11-11T05:54:09;7.70;99.90
24162;DHT22;12318;51.262;7.066;2022-11-11T05:56:35;7.70;99.90
24162;DHT22;12318;51.262;7.066;2022-11-11T05:59:01;7.60;99.90
24162;DHT22;12318;51.262;7.066;2022-11-11T06:01:27;7.70;99.90
24162;DHT22;12318;51.262;7.066;2022-11-11T06:03:52;7.70;99.90
24162;DHT22;12318;51.262;7.066;2022-11-11T06:06:18;7.70;99.90
24162;DHT22;12318;51.262;7.066;2022-11-11T06:08:44;7.70;99.90
24162;DHT22;12318;51.262;7.066;2022-11-11T06:11:10;7.70;99.90
24162;DHT22;12318;51.262;7.066;2022-11-11T06:13:35;7.80;99.90
24162;DHT22;12318;51.262;7.066;2022-11-11T06:16:02;7.80;99.90
24162;DHT22;12318;51.262;7.066;2022-11-11T06:18:28;7.80;99.90
24162;DHT22;12318;51.262;7.066;2022-11-11T06:20:55;7.80;99.90
24162;DHT22;12318;51.262;7.066;2022-11-11T06:23:21;7.80;99.90
24162;DHT22;12318;51.262;7.066;2022-11-11T06:25:47;7.80;99.90
24162;DHT22;12318;51.262;7.066;2022-11-11T06:28:31;7.80;99.90
24162;DHT22;12318;51.262;7.066;2022-11-11T06:30:57;7.90;99.90
24162;DHT22;12318;51.262;7.066;2022-11-11T06:33:23;7.90;99.90
24162;DHT22;12318;51.262;7.066;2022-11-11T06:35:49;7.90;99.90
24162;DHT22;12318;51.262;7.066;2022-11-11T06:38:16;7.90;99.90
24162;DHT22;12318;51.262;7.066;2022-11-11T06:40:42;8.00;99.90
24162;DHT22;12318;51.262;7.066;2022-11-11T06:43:08;8.00;99.90
24162;DHT22;12318;51.262;7.066;2022-11-11T06:45:34;8.10;99.90
24162;DHT22;12318;51.262;7.066;2022-11-11T06:48:02;8.10;99.90
24162;DHT22;12318;51.262;7.066;2022-11-11T06:50:28;8.10;99.90
24162;DHT22;12318;51.262;7.066;2022-11-11T06:52:54;8.10;99.90
24162;DHT22;12318;51.262;7.066;2022-11-11T06:55:20;8.10;99.90
24162;DHT22;12318;51.262;7.066;2022-11-11T06:57:46;8.10;99.90
24162;DHT22;12318;51.262;7.066;2022-11-11T07:00:13;8.10;99.90
24162;DHT22;12318;51.262;7.066;2022-11-11T07:02:39;8.20;99.90
24162;DHT22;12318;51.262;7.066;2022-11-11T07:05:05;8.20;99.90
24162;DHT22;12318;51.262;7.066;2022-11-11T07:07:31;8.20;99.90
24162;DHT22;12318;51.262;7.066;2022-11-11T07:09:57;8.20;99.90
24162;DHT22;12318;51.262;7.066;2022-11-11T07:12:23;8.20;99.90
24162;DHT22;12318;51.262;7.066;2022-11-11T07:14:49;8.20;99.90
24162;DHT22;12318;51.262;7.066;2022-11-11T07:17:15;8.10;99.90
24162;DHT22;12318;51.262;7.066;2022-11-11T07:19:40;8.20;99.90
24162;DHT22;12318;51.262;7.066;2022-11-11T07:22:06;8.20;99.90
24162;DHT22;12318;51.262;7.066;2022-11-11T07:24:49;8.20;99.90
24162;DHT22;12318;51.262;7.066;2022-11-11T07:27:27;8.20;99.90
24162;DHT22;12318;51.262;7.066;2022-11-11T07:29:53;8.30;99.90
24162;DHT22;12318;51.262;7.066;2022-11-11T07:32:18;8.30;99.90
24162;DHT22;12318;51.262;7.066;2022-11-11T07:34:44;8.30;99.90
24162;DHT22;12318;51.262;7.066;2022-11-11T07:37:10;8.30;99.90
24162;DHT22;12318;51.262;7.066;2022-11-11T07:39:35;8.30;99.90
24162;DHT22;12318;51.262;7.066;2022-11-11T07:42:01;8.30;99.90
24162;DHT22;12318;51.262;7.066;2022-11-11T07:44:27;8.40;99.90
24162;DHT22;12318;51.262;7.066;2022-11-11T07:46:55;8.40;99.90
24162;DHT22;12318;51.262;7.066;2022-11-11T07:49:21;8.40;99.90
24162;DHT22;12318;51.262;7.066;2022-11-11T07:51:47;8.40;99.90
24162;DHT22;12318;51.262;7.066;2022-11-11T07:54:12;8.40;99.90
24162;DHT22;12318;51.262;7.066;2022-11-11T07:56:38;8.40;99.90
24162;DHT22;12318;51.262;7.066;2022-11-11T07:59:04;8.50;99.90
24162;DHT22;12318;51.262;7.066;2022-11-11T08:01:30;8.50;99.90
24162;DHT22;12318;51.262;7.066;2022-11-11T08:03:56;8.50;99.90
24162;DHT22;12318;51.262;7.066;2022-11-11T08:06:42;8.50;99.90
24162;DHT22;12318;51.262;7.066;2022-11-11T08:09:08;8.60;99.90
24162;DHT22;12318;51.262;7.066;2022-11-11T08:11:34;8.60;99.90
24162;DHT22;12318;51.262;7.066;2022-11-11T08:14:18;8.60;99.90
24162;DHT22;12318;51.262;7.066;2022-11-11T08:16:54;8.70;99.90
24162;DHT22;12318;51.262;7.066;2022-11-11T08:19:20;8.70;99.90
24162;DHT22;12318;51.262;7.066;2022-11-11T08:21:54;8.80;99.90
24162;DHT22;12318;51.262;7.066;2022-11-11T08:24:20;8.80;99.90
24162;DHT22;12318;51.262;7.066;2022-11-11T08:26:49;8.90;99.90
24162;DHT22;12318;51.262;7.066;2022-11-11T08:29:14;8.90;99.90
24162;DHT22;12318;51.262;7.066;2022-11-11T08:31:41;8.90;99.90
24162;DHT22;12318;51.262;7.066;2022-11-11T08:34:09;9.00;99.90
24162;DHT22;12318;51.262;7.066;2022-11-11T08:36:35;9.10;99.90
24162;DHT22;12318;51.262;7.066;2022-11-11T08:39:03;9.10;99.90
24162;DHT22;12318;51.262;7.066;2022-11-11T08:41:29;9.10;99.90
24162;DHT22;12318;51.262;7.066;2022-11-11T08:43:55;9.10;99.90
24162;DHT22;12318;51.262;7.066;2022-11-11T08:46:21;9.10;99.90
24162;DHT22;12318;51.262;7.066;2022-11-11T08:48:47;9.20;99.90
24162;DHT22;12318;51.262;7.066;2022-11-11T08:51:13;9.40;99.90
24162;DHT22;12318;51.262;7.066;2022-11-11T08:53:42;9.50;99.90
24162;DHT22;12318;51.262;7.066;2022-11-11T08:56:08;9.50;99.90
24162;DHT22;12318;51.262;7.066;2022-11-11T08:58:34;9.60;99.90
24162;DHT22;12318;51.262;7.066;2022-11-11T09:01:00;9.60;99.90
24162;DHT22;12318;51.262;7.066;2022-11-11T09:03:29;9.80;99.90
24162;DHT22;12318;51.262;7.066;2022-11-11T09:05:55;9.90;99.90
24162;DHT22;12318;51.262;7.066;2022-11-11T09:08:21;10.10;99.90
24162;DHT22;12318;51.262;7.066;2022-11-11T09:10:47;10.10;99.90
24162;DHT22;12318;51.262;7.066;2022-11-11T09:13:13;10.10;99.90
24162;DHT22;12318;51.262;7.066;2022-11-11T09:15:38;10.10;99.90
24162;DHT22;12318;51.262;7.066;2022-11-11T09:18:04;10.10;99.90
24162;DHT22;12318;51.262;7.066;2022-11-11T09:20:30;10.10;99.90
24162;DHT22;12318;51.262;7.066;2022-11-11T09:22:56;10.20;99.90
24162;DHT22;12318;51.262;7.066;2022-11-11T09:25:22;10.20;99.90
24162;DHT22;12318;51.262;7.066;2022-11-11T09:27:59;10.40;99.90
24162;DHT22;12318;51.262;7.066;2022-11-11T09:30:26;10.30;99.90
24162;DHT22;12318;51.262;7.066;2022-11-11T09:32:52;10.40;99.90
24162;DHT22;12318;51.262;7.066;2022-11-11T09:35:18;10.50;99.90
24162;DHT22;12318;51.262;7.066;2022-11-11T09:37:58;10.50;99.90
24162;DHT22;12318;51.262;7.066;2022-11-11T09:40:27;10.50;99.90
24162;DHT22;12318;51.262;7.066;2022-11-11T09:47:09;10.50;99.90
24162;DHT22;12318;51.262;7.066;2022-11-11T09:50:04;10.60;99.90
24162;DHT22;12318;51.262;7.066;2022-11-11T09:55:35;10.70;99.90
24162;DHT22;12318;51.262;7.066;2022-11-11T09:58:27;10.80;99.90
24162;DHT22;12318;51.262;7.066;2022-11-11T10:01:01;10.80;99.90
24162;DHT22;12318;51.262;7.066;2022-11-11T10:03:30;11.00;99.90
24162;DHT22;12318;51.262;7.066;2022-11-11T10:06:27;10.90;99.90
24162;DHT22;12318;51.262;7.066;2022-11-11T10:08:59;11.00;99.90
24162;DHT22;12318;51.262;7.066;2022-11-11T10:11:42;11.00;99.90
24162;DHT22;12318;51.262;7.066;2022-11-11T10:14:12;11.00;99.90
24162;DHT22;12318;51.262;7.066;2022-11-11T10:22:33;11.30;99.90
24162;DHT22;12318;51.262;7.066;2022-11-11T10:25:06;11.40;99.90
24162;DHT22;12318;51.262;7.066;2022-11-11T10:27:33;11.50;99.90
24162;DHT22;12318;51.262;7.066;2022-11-11T10:30:06;11.50;99.90
24162;DHT22;12318;51.262;7.066;2022-11-11T10:32:34;11.50;99.90
24162;DHT22;12318;51.262;7.066;2022-11-11T10:35:18;11.70;99.90
24162;DHT22;12318;51.262;7.066;2022-11-11T10:37:44;11.80;99.90
24162;DHT22;12318;51.262;7.066;2022-11-11T10:40:17;11.70;99.90
24162;DHT22;12318;51.262;7.066;2022-11-11T10:42:46;11.70;99.90
24162;DHT22;12318;51.262;7.066;2022-11-11T10:48:03;11.80;99.90
24162;DHT22;12318;51.262;7.066;2022-11-11T10:50:46;11.70;99.90
24162;DHT22;12318;51.262;7.066;2022-11-11T11:01:27;11.90;99.90
24162;DHT22;12318;51.262;7.066;2022-11-11T11:06:47;11.90;99.90
24162;DHT22;12318;51.262;7.066;2022-11-11T11:09:31;11.90;99.90
24162;DHT22;12318;51.262;7.066;2022-11-11T11:12:10;12.00;99.90
24162;DHT22;12318;51.262;7.066;2022-11-11T11:14:53;12.20;99.90
24162;DHT22;12318;51.262;7.066;2022-11-11T11:17:25;12.30;99.90
24162;DHT22;12318;51.262;7.066;2022-11-11T11:22:46;12.50;99.90
24162;DHT22;12318;51.262;7.066;2022-11-11T11:25:13;12.50;99.90
24162;DHT22;12318;51.262;7.066;2022-11-11T11:27:39;12.40;99.90
24162;DHT22;12318;51.262;7.066;2022-11-11T11:30:29;12.50;99.90
24162;DHT22;12318;51.262;7.066;2022-11-11T11:32:59;12.60;99.90
24162;DHT22;12318;51.262;7.066;2022-11-11T11:35:44;12.60;99.90
24162;DHT22;12318;51.262;7.066;2022-11-11T11:38:11;12.80;99.90
24162;DHT22;12318;51.262;7.066;2022-11-11T11:45:59;12.90;99.90
24162;DHT22;12318;51.262;7.066;2022-11-11T11:48:32;13.00;99.90
24162;DHT22;12318;51.262;7.066;2022-11-11T11:54:14;13.00;99.90
24162;DHT22;12318;51.262;7.066;2022-11-11T11:56:57;12.90;99.90
24162;DHT22;12318;51.262;7.066;2022-11-11T11:59:27;12.90;99.90
24162;DHT22;12318;51.262;7.066;2022-11-11T12:07:59;13.00;99.90
24162;DHT22;12318;51.262;7.066;2022-11-11T12:16:26;13.10;99.90
24162;DHT22;12318;51.262;7.066;2022-11-11T12:25:11;13.20;99.90
24162;DHT22;12318;51.262;7.066;2022-11-11T12:30:22;13.20;99.90
24162;DHT22;12318;51.262;7.066;2022-11-11T12:33:42;13.30;99.90
24162;DHT22;12318;51.262;7.066;2022-11-11T12:44:12;12.90;99.90
24162;DHT22;12318;51.262;7.066;2022-11-11T12:47:10;12.90;99.90
24162;DHT22;12318;51.262;7.066;2022-11-11T13:03:44;13.10;99.90
24162;DHT22;12318;51.262;7.066;2022-11-11T13:16:42;13.20;99.90
24162;DHT22;12318;51.262;7.066;2022-11-11T13:22:27;13.40;99.90
24162;DHT22;12318;51.262;7.066;2022-11-11T13:24:58;13.40;99.90
24162;DHT22;12318;51.262;7.066;2022-11-11T13:27:49;13.40;99.90
24162;DHT22;12318;51.262;7.066;2022-11-11T13:33:04;13.40;99.90
24162;DHT22;12318;51.262;7.066;2022-11-11T13:35:47;13.40;99.90
24162;DHT22;12318;51.262;7.066;2022-11-11T13:40:53;13.30;99.90
24162;DHT22;12318;51.262;7.066;2022-11-11T13:46:03;13.30;99.90
24162;DHT22;12318;51.262;7.066;2022-11-11T13:48:34;13.40;99.90
24162;DHT22;12318;51.262;7.066;2022-11-11T13:53:46;13.40;99.90
24162;DHT22;12318;51.262;7.066;2022-11-11T13:58:50;13.50;99.90
24162;DHT22;12318;51.262;7.066;2022-11-11T14:01:16;13.60;99.90
24162;DHT22;12318;51.262;7.066;2022-11-11T14:03:59;13.40;99.90
24162;DHT22;12318;51.262;7.066;2022-11-11T14:06:28;13.40;99.90
24162;DHT22;12318;51.262;7.066;2022-11-11T14:08:55;13.40;99.90
24162;DHT22;12318;51.262;7.066;2022-11-11T14:21:51;13.40;99.90
24162;DHT22;12318;51.262;7.066;2022-11-11T14:24:42;13.50;99.90
24162;DHT22;12318;51.262;7.066;2022-11-11T14:29:54;13.30;99.90
24162;DHT22;12318;51.262;7.066;2022-11-11T14:32:37;13.30;99.90
24162;DHT22;12318;51.262;7.066;2022-11-11T14:35:43;13.30;99.90
24162;DHT22;12318;51.262;7.066;2022-11-11T14:40:42;13.20;99.90
24162;DHT22;12318;51.262;7.066;2022-11-11T14:43:46;13.30;99.90
24162;DHT22;12318;51.262;7.066;2022-11-11T14:46:14;13.20;99.90
24162;DHT22;12318;51.262;7.066;2022-11-11T14:48:54;13.30;99.90
24162;DHT22;12318;51.262;7.066;2022-11-11T14:51:58;13.20;99.90
24162;DHT22;12318;51.262;7.066;2022-11-11T14:56:59;13.10;99.90
24162;DHT22;12318;51.262;7.066;2022-11-11T14:59:27;13.10;99.90
24162;DHT22;12318;51.262;7.066;2022-11-11T15:01:54;13.10;99.90
24162;DHT22;12318;51.262;7.066;2022-11-11T15:04:22;13.00;99.90
24162;DHT22;12318;51.262;7.066;2022-11-11T15:06:59;12.90;99.90
24162;DHT22;12318;51.262;7.066;2022-11-11T15:17:27;12.90;99.90
24162;DHT22;12318;51.262;7.066;2022-11-11T15:23:11;12.90;99.90
24162;DHT22;12318;51.262;7.066;2022-11-11T15:31:48;12.80;99.90
24162;DHT22;12318;51.262;7.066;2022-11-11T15:37:03;12.80;99.90
24162;DHT22;12318;51.262;7.066;2022-11-11T15:39:43;12.60;99.90
24162;DHT22;12318;51.262;7.066;2022-11-11T15:42:21;12.30;99.90
24162;DHT22;12318;51.262;7.066;2022-11-11T15:44:50;12.40;99.90
24162;DHT22;12318;51.262;7.066;2022-11-11T15:47:18;12.40;99.90
24162;DHT22;12318;51.262;7.066;2022-11-11T15:49:46;12.40;99.90
24162;DHT22;12318;51.262;7.066;2022-11-11T15:54:48;12.30;99.90
24162;DHT22;12318;51.262;7.066;2022-11-11T15:59:55;12.30;99.90
24162;DHT22;12318;51.262;7.066;2022-11-11T16:02:33;12.30;99.90
24162;DHT22;12318;51.262;7.066;2022-11-11T16:05:26;12.20;99.90
24162;DHT22;12318;51.262;7.066;2022-11-11T16:07:55;12.10;99.90
24162;DHT22;12318;51.262;7.066;2022-11-11T16:10:32;12.10;99.90
24162;DHT22;12318;51.262;7.066;2022-11-11T16:18:42;12.10;99.90
24162;DHT22;12318;51.262;7.066;2022-11-11T16:21:20;12.00;99.90
24162;DHT22;12318;51.262;7.066;2022-11-11T16:23:47;12.00;99.90
24162;DHT22;12318;51.262;7.066;2022-11-11T16:26:14;12.00;99.90
24162;DHT22;12318;51.262;7.066;2022-11-11T16:28:46;11.90;99.90
24162;DHT22;12318;51.262;7.066;2022-11-11T16:31:38;11.90;99.90
24162;DHT22;12318;51.262;7.066;2022-11-11T16:37:07;11.90;99.90
24162;DHT22;12318;51.262;7.066;2022-11-11T16:39:34;11.90;99.90
24162;DHT22;12318;51.262;7.066;2022-11-11T16:42:05;11.90;99.90
24162;DHT22;12318;51.262;7.066;2022-11-11T16:44:42;11.80;99.90
24162;DHT22;12318;51.262;7.066;2022-11-11T16:50:04;11.90;99.90
24162;DHT22;12318;51.262;7.066;2022-11-11T16:52:40;11.90;99.90
24162;DHT22;12318;51.262;7.066;2022-11-11T16:55:09;11.90;99.90
24162;DHT22;12318;51.262;7.066;2022-11-11T16:57:39;11.90;99.90
24162;DHT22;12318;51.262;7.066;2022-11-11T17:00:12;11.80;99.90
24162;DHT22;12318;51.262;7.066;2022-11-11T17:02:39;11.80;99.90
24162;DHT22;12318;51.262;7.066;2022-11-11T17:05:05;11.80;99.90
24162;DHT22;12318;51.262;7.066;2022-11-11T17:10:11;11.80;99.90
24162;DHT22;12318;51.262;7.066;2022-11-11T17:12:38;11.70;99.90
24162;DHT22;12318;51.262;7.066;2022-11-11T17:15:11;11.60;99.90
24162;DHT22;12318;51.262;7.066;2022-11-11T17:17:38;11.50;99.90
24162;DHT22;12318;51.262;7.066;2022-11-11T17:20:07;11.50;99.90
24162;DHT22;12318;51.262;7.066;2022-11-11T17:22:33;11.50;99.90
24162;DHT22;12318;51.262;7.066;2022-11-11T17:24:59;11.50;99.90
24162;DHT22;12318;51.262;7.066;2022-11-11T17:27:28;11.40;99.90
24162;DHT22;12318;51.262;7.066;2022-11-11T17:29:54;11.50;99.90
24162;DHT22;12318;51.262;7.066;2022-11-11T17:32:19;11.50;99.90
24162;DHT22;12318;51.262;7.066;2022-11-11T17:34:45;11.40;99.90
24162;DHT22;12318;51.262;7.066;2022-11-11T17:37:11;11.40;99.90
24162;DHT22;12318;51.262;7.066;2022-11-11T17:39:37;11.50;99.90
24162;DHT22;12318;51.262;7.066;2022-11-11T17:42:09;11.40;99.90
24162;DHT22;12318;51.262;7.066;2022-11-11T17:44:35;11.40;99.90
24162;DHT22;12318;51.262;7.066;2022-11-11T17:47:01;11.40;99.90
24162;DHT22;12318;51.262;7.066;2022-11-11T17:49:27;11.40;99.90
24162;DHT22;12318;51.262;7.066;2022-11-11T17:51:52;11.40;99.90
24162;DHT22;12318;51.262;7.066;2022-11-11T17:54:18;11.40;99.90
24162;DHT22;12318;51.262;7.066;2022-11-11T17:56:44;11.30;99.90
24162;DHT22;12318;51.262;7.066;2022-11-11T17:59:11;11.30;99.90
24162;DHT22;12318;51.262;7.066;2022-11-11T18:01:37;11.30;99.90
24162;DHT22;12318;51.262;7.066;2022-11-11T18:04:04;11.30;99.90
24162;DHT22;12318;51.262;7.066;2022-11-11T18:06:31;11.30;99.90
24162;DHT22;12318;51.262;7.066;2022-11-11T18:08:57;11.20;99.90
24162;DHT22;12318;51.262;7.066;2022-11-11T18:11:23;11.30;99.90
24162;DHT22;12318;51.262;7.066;2022-11-11T18:13:49;11.30;99.90
24162;DHT22;12318;51.262;7.066;2022-11-11T18:16:17;11.30;99.90
24162;DHT22;12318;51.262;7.066;2022-11-11T18:18:43;11.40;99.90
24162;DHT22;12318;51.262;7.066;2022-11-11T18:21:09;11.30;99.90
24162;DHT22;12318;51.262;7.066;2022-11-11T18:23:37;11.30;99.90
24162;DHT22;12318;51.262;7.066;2022-11-11T18:26:04;11.20;99.90
24162;DHT22;12318;51.262;7.066;2022-11-11T18:28:35;11.20;99.90
24162;DHT22;12318;51.262;7.066;2022-11-11T18:31:06;11.30;99.90
24162;DHT22;12318;51.262;7.066;2022-11-11T18:33:33;11.40;99.90
24162;DHT22;12318;51.262;7.066;2022-11-11T18:36:08;11.40;99.90
24162;DHT22;12318;51.262;7.066;2022-11-11T18:38:35;11.30;99.90
24162;DHT22;12318;51.262;7.066;2022-11-11T18:41:24;11.40;99.90
24162;DHT22;12318;51.262;7.066;2022-11-11T18:43:51;11.30;99.90
24162;DHT22;12318;51.262;7.066;2022-11-11T18:46:23;11.30;99.90
24162;DHT22;12318;51.262;7.066;2022-11-11T18:48:53;11.20;99.90
24162;DHT22;12318;51.262;7.066;2022-11-11T18:51:20;11.20;99.90
24162;DHT22;12318;51.262;7.066;2022-11-11T18:53:45;11.20;99.90
24162;DHT22;12318;51.262;7.066;2022-11-11T18:56:17;11.30;99.90
24162;DHT22;12318;51.262;7.066;2022-11-11T18:58:48;11.30;99.90